sensor_id;sensor_type;location;lat;lon;timestamp;P1;durP1;ratioP1;P2;durP2;ratioP2
20857;SDS011;10589;53.636;10.012;2022-11-18T04:45:23;48.37;;;23.27;;
20857;SDS011;10589;53.636;10.012;2022-11-18T04:47:48;43.47;;;24.57;;
20857;SDS011;10589;53.636;10.012;2022-11-18T04:50:14;41.97;;;24.07;;
20857;SDS011;10589;53.636;10.012;2022-11-18T04:52:39;45.43;;;25.27;;
20857;SDS011;10589;53.636;10.012;2022-11-18T04:55:05;46.67;;;24.63;;
20857;SDS011;10589;53.636;10.012;2022-11-18T04:57:31;44.10;;;24.67;;
20857;SDS011;10589;53.636;10.012;2022-11-18T04:59:56;47.47;;;25.17;;
20857;SDS011;10589;53.636;10.012;2022-11-18T05:02:22;50.23;;;25.40;;
20857;SDS011;10589;53.636;10.012;2022-11-18T05:04:48;46.03;;;24.67;;
20857;SDS011;10589;53.636;10.012;2022-11-18T05:07:13;50.47;;;26.27;;
20857;SDS011;10589;53.636;10.012;2022-11-18T05:09:40;47.27;;;25.60;;
20857;SDS011;10589;53.636;10.012;2022-11-18T05:12:08;46.17;;;25.47;;
20857;SDS011;10589;53.636;10.012;2022-11-18T05:14:54;48.90;;;24.90;;
20857;SDS011;10589;53.636;10.012;2022-11-18T05:17:20;50.10;;;27.07;;
20857;SDS011;10589;53.636;10.012;2022-11-18T05:19:45;46.93;;;25.30;;
20857;SDS011;10589;53.636;10.012;2022-11-18T05:22:11;48.73;;;27.03;;
20857;SDS011;10589;53.636;10.012;2022-11-18T05:24:40;48.67;;;26.83;;
20857;SDS011;10589;53.636;10.012;2022-11-18T05:27:05;50.87;;;27.07;;
20857;SDS011;10589;53.636;10.012;2022-11-18T05:29:31;51.50;;;26.87;;
20857;SDS011;10589;53.636;10.012;2022-11-18T05:31:57;49.53;;;26.40;;
20857;SDS011;10589;53.636;10.012;2022-11-18T05:34:23;49.60;;;27.57;;
20857;SDS011;10589;53.636;10.012;2022-11-18T05:36:49;49.40;;;27.13;;
20857;SDS011;10589;53.636;10.012;2022-11-18T05:39:15;50.40;;;27.67;;
20857;SDS011;10589;53.636;10.012;2022-11-18T05:41:42;49.53;;;27.93;;
20857;SDS011;10589;53.636;10.012;2022-11-18T05:44:26;54.10;;;26.90;;
20857;SDS011;10589;53.636;10.012;2022-11-18T05:46:52;52.93;;;28.30;;
20857;SDS011;10589;53.636;10.012;2022-11-18T05:49:19;52.20;;;27.13;;
20857;SDS011;10589;53.636;10.012;2022-11-18T05:51:45;54.53;;;28.67;;
20857;SDS011;10589;53.636;10.012;2022-11-18T05:54:11;56.47;;;28.20;;
20857;SDS011;10589;53.636;10.012;2022-11-18T05:56:40;49.50;;;27.43;;
20857;SDS011;10589;53.636;10.012;2022-11-18T05:59:09;49.43;;;27.40;;
20857;SDS011;10589;53.636;10.012;2022-11-18T06:01:40;49.50;;;26.97;;
20857;SDS011;10589;53.636;10.012;2022-11-18T06:04:14;47.37;;;26.67;;
20857;SDS011;10589;53.636;10.012;2022-11-18T06:07:02;51.60;;;28.93;;
20857;SDS011;10589;53.636;10.012;2022-11-18T06:09:39;48.03;;;26.87;;
20857;SDS011;10589;53.636;10.012;2022-11-18T06:12:07;49.57;;;27.87;;
20857;SDS011;10589;53.636;10.012;2022-11-18T06:14:44;51.30;;;27.33;;
20857;SDS011;10589;53.636;10.012;2022-11-18T06:17:43;50.63;;;26.50;;
20857;SDS011;10589;53.636;10.012;2022-11-18T06:22:42;51.47;;;27.53;;
20857;SDS011;10589;53.636;10.012;2022-11-18T06:25:07;50.03;;;27.13;;
20857;SDS011;10589;53.636;10.012;2022-11-18T06:27:33;52.73;;;29.13;;
20857;SDS011;10589;53.636;10.012;2022-11-18T06:29:59;49.20;;;27.03;;
20857;SDS011;10589;53.636;10.012;2022-11-18T06:32:25;53.87;;;27.80;;
20857;SDS011;10589;53.636;10.012;2022-11-18T06:34:50;50.70;;;27.90;;
20857;SDS011;10589;53.636;10.012;2022-11-18T06:37:16;55.37;;;28.53;;
20857;SDS011;10589;53.636;10.012;2022-11-18T06:39:46;53.30;;;28.40;;
20857;SDS011;10589;53.636;10.012;2022-11-18T06:42:12;53.70;;;26.73;;
20857;SDS011;10589;53.636;10.012;2022-11-18T06:44:57;53.97;;;27.90;;
20857;SDS011;10589;53.636;10.012;2022-11-18T06:47:22;51.53;;;27.83;;
20857;SDS011;10589;53.636;10.012;2022-11-18T06:49:48;54.17;;;29.17;;
20857;SDS011;10589;53.636;10.012;2022-11-18T06:52:13;57.93;;;29.97;;
20857;SDS011;10589;53.636;10.012;2022-11-18T06:54:39;59.20;;;31.07;;
20857;SDS011;10589;53.636;10.012;2022-11-18T06:57:04;54.57;;;27.83;;
20857;SDS011;10589;53.636;10.012;2022-11-18T06:59:30;48.67;;;26.60;;
20857;SDS011;10589;53.636;10.012;2022-11-18T07:01:56;47.83;;;25.97;;
20857;SDS011;10589;53.636;10.012;2022-11-18T07:04:22;50.87;;;27.20;;
20857;SDS011;10589;53.636;10.012;2022-11-18T07:06:47;52.10;;;27.80;;
20857;SDS011;10589;53.636;10.012;2022-11-18T07:09:13;47.70;;;27.80;;
20857;SDS011;10589;53.636;10.012;2022-11-18T07:11:38;49.20;;;26.37;;
20857;SDS011;10589;53.636;10.012;2022-11-18T07:14:05;46.50;;;26.27;;
20857;SDS011;10589;53.636;10.012;2022-11-18T07:16:32;43.20;;;24.73;;
20857;SDS011;10589;53.636;10.012;2022-11-18T07:18:58;42.77;;;25.57;;
20857;SDS011;10589;53.636;10.012;2022-11-18T07:21:25;45.07;;;24.53;;
20857;SDS011;10589;53.636;10.012;2022-11-18T07:23:52;45.03;;;25.30;;
20857;SDS011;10589;53.636;10.012;2022-11-18T07:26:18;40.20;;;23.33;;
20857;SDS011;10589;53.636;10.012;2022-11-18T07:28:44;39.37;;;23.87;;
20857;SDS011;10589;53.636;10.012;2022-11-18T07:31:14;41.83;;;24.27;;
20857;SDS011;10589;53.636;10.012;2022-11-18T07:33:41;43.40;;;25.03;;
20857;SDS011;10589;53.636;10.012;2022-11-18T07:36:17;36.93;;;22.90;;
20857;SDS011;10589;53.636;10.012;2022-11-18T07:38:44;39.47;;;23.43;;
20857;SDS011;10589;53.636;10.012;2022-11-18T07:41:11;37.67;;;23.13;;
20857;SDS011;10589;53.636;10.012;2022-11-18T07:43:44;37.10;;;21.77;;
20857;SDS011;10589;53.636;10.012;2022-11-18T07:46:18;35.30;;;22.97;;
20857;SDS011;10589;53.636;10.012;2022-11-18T07:48:46;36.23;;;22.17;;
20857;SDS011;10589;53.636;10.012;2022-11-18T07:51:13;32.97;;;21.03;;
20857;SDS011;10589;53.636;10.012;2022-11-18T07:53:40;33.80;;;21.57;;
20857;SDS011;10589;53.636;10.012;2022-11-18T07:56:06;31.40;;;20.17;;
20857;SDS011;10589;53.636;10.012;2022-11-18T07:58:33;34.20;;;21.17;;
20857;SDS011;10589;53.636;10.012;2022-11-18T08:01:07;35.03;;;20.33;;
20857;SDS011;10589;53.636;10.012;2022-11-18T08:03:33;30.37;;;19.93;;
20857;SDS011;10589;53.636;10.012;2022-11-18T08:05:59;31.70;;;19.87;;
20857;SDS011;10589;53.636;10.012;2022-11-18T08:08:25;31.37;;;19.47;;
20857;SDS011;10589;53.636;10.012;2022-11-18T08:10:54;30.43;;;18.70;;
20857;SDS011;10589;53.636;10.012;2022-11-18T08:13:21;28.37;;;17.97;;
20857;SDS011;10589;53.636;10.012;2022-11-18T08:15:46;28.80;;;17.73;;
20857;SDS011;10589;53.636;10.012;2022-11-18T08:18:12;24.67;;;17.47;;
20857;SDS011;10589;53.636;10.012;2022-11-18T08:20:37;27.57;;;18.87;;
20857;SDS011;10589;53.636;10.012;2022-11-18T08:23:03;27.87;;;18.30;;
20857;SDS011;10589;53.636;10.012;2022-11-18T08:25:29;24.33;;;16.70;;
20857;SDS011;10589;53.636;10.012;2022-11-18T08:27:54;24.43;;;17.50;;
20857;SDS011;10589;53.636;10.012;2022-11-18T08:30:20;26.40;;;17.67;;
20857;SDS011;10589;53.636;10.012;2022-11-18T08:32:45;23.20;;;16.70;;
20857;SDS011;10589;53.636;10.012;2022-11-18T08:35:11;25.03;;;16.03;;
20857;SDS011;10589;53.636;10.012;2022-11-18T08:37:37;24.30;;;16.30;;
20857;SDS011;10589;53.636;10.012;2022-11-18T08:40:03;24.83;;;16.37;;
20857;SDS011;10589;53.636;10.012;2022-11-18T08:42:29;21.63;;;15.70;;
20857;SDS011;10589;53.636;10.012;2022-11-18T08:44:54;22.40;;;15.87;;
20857;SDS011;10589;53.636;10.012;2022-11-18T08:47:20;24.27;;;16.50;;
20857;SDS011;10589;53.636;10.012;2022-11-18T08:49:45;31.03;;;20.23;;
20857;SDS011;10589;53.636;10.012;2022-11-18T08:52:11;30.60;;;19.27;;
20857;SDS011;10589;53.636;10.012;2022-11-18T08:54:37;30.30;;;18.80;;
20857;SDS011;10589;53.636;10.012;2022-11-18T08:57:02;22.07;;;16.17;;
20857;SDS011;10589;53.636;10.012;2022-11-18T08:59:28;23.73;;;17.00;;
20857;SDS011;10589;53.636;10.012;2022-11-18T09:01:53;41.30;;;24.10;;
20857;SDS011;10589;53.636;10.012;2022-11-18T09:04:19;29.37;;;18.23;;
20857;SDS011;10589;53.636;10.012;2022-11-18T09:06:45;27.03;;;17.13;;
20857;SDS011;10589;53.636;10.012;2022-11-18T09:09:10;28.87;;;15.63;;
20857;SDS011;10589;53.636;10.012;2022-11-18T09:11:37;25.40;;;16.03;;
20857;SDS011;10589;53.636;10.012;2022-11-18T09:14:03;31.67;;;19.50;;
20857;SDS011;10589;53.636;10.012;2022-11-18T09:16:30;25.90;;;15.97;;
20857;SDS011;10589;53.636;10.012;2022-11-18T09:18:56;19.83;;;13.90;;
20857;SDS011;10589;53.636;10.012;2022-11-18T09:21:23;18.60;;;13.67;;
20857;SDS011;10589;53.636;10.012;2022-11-18T09:23:50;17.53;;;12.50;;
20857;SDS011;10589;53.636;10.012;2022-11-18T09:26:16;15.80;;;11.93;;
20857;SDS011;10589;53.636;10.012;2022-11-18T09:28:44;16.93;;;12.53;;
20857;SDS011;10589;53.636;10.012;2022-11-18T09:31:12;16.17;;;11.57;;
20857;SDS011;10589;53.636;10.012;2022-11-18T09:33:39;15.83;;;12.10;;
20857;SDS011;10589;53.636;10.012;2022-11-18T09:36:10;15.07;;;11.03;;
20857;SDS011;10589;53.636;10.012;2022-11-18T09:38:37;15.03;;;11.27;;
20857;SDS011;10589;53.636;10.012;2022-11-18T09:41:04;15.67;;;11.23;;
20857;SDS011;10589;53.636;10.012;2022-11-18T09:47:07;14.53;;;10.37;;
20857;SDS011;10589;53.636;10.012;2022-11-18T09:49:43;13.07;;;9.93;;
20857;SDS011;10589;53.636;10.012;2022-11-18T09:54:41;14.30;;;10.00;;
20857;SDS011;10589;53.636;10.012;2022-11-18T09:57:26;13.00;;;9.90;;
20857;SDS011;10589;53.636;10.012;2022-11-18T09:59:59;14.57;;;9.80;;
20857;SDS011;10589;53.636;10.012;2022-11-18T10:02:27;11.40;;;8.80;;
20857;SDS011;10589;53.636;10.012;2022-11-18T10:05:21;11.93;;;8.23;;
20857;SDS011;10589;53.636;10.012;2022-11-18T10:07:51;28.37;;;17.73;;
20857;SDS011;10589;53.636;10.012;2022-11-18T10:16:53;43.60;;;19.17;;
20857;SDS011;10589;53.636;10.012;2022-11-18T10:24:59;19.63;;;10.63;;
20857;SDS011;10589;53.636;10.012;2022-11-18T10:27:26;10.70;;;7.57;;
20857;SDS011;10589;53.636;10.012;2022-11-18T10:29:58;12.90;;;8.83;;
20857;SDS011;10589;53.636;10.012;2022-11-18T10:32:26;10.53;;;8.47;;
20857;SDS011;10589;53.636;10.012;2022-11-18T10:34:53;9.60;;;7.30;;
20857;SDS011;10589;53.636;10.012;2022-11-18T10:37:33;11.27;;;7.50;;
20857;SDS011;10589;53.636;10.012;2022-11-18T10:40:02;11.43;;;8.30;;
20857;SDS011;10589;53.636;10.012;2022-11-18T10:42:41;13.83;;;7.03;;
20857;SDS011;10589;53.636;10.012;2022-11-18T10:45:22;9.27;;;6.37;;
20857;SDS011;10589;53.636;10.012;2022-11-18T10:48:02;8.13;;;6.57;;
20857;SDS011;10589;53.636;10.012;2022-11-18T10:53:27;8.70;;;6.23;;
20857;SDS011;10589;53.636;10.012;2022-11-18T10:55:57;9.23;;;6.23;;
20857;SDS011;10589;53.636;10.012;2022-11-18T10:58:24;11.13;;;6.67;;
20857;SDS011;10589;53.636;10.012;2022-11-18T11:00:50;10.53;;;5.70;;
20857;SDS011;10589;53.636;10.012;2022-11-18T11:08:45;8.13;;;6.17;;
20857;SDS011;10589;53.636;10.012;2022-11-18T11:11:17;9.33;;;5.50;;
20857;SDS011;10589;53.636;10.012;2022-11-18T11:13:54;7.33;;;5.27;;
20857;SDS011;10589;53.636;10.012;2022-11-18T11:16:51;7.23;;;4.97;;
20857;SDS011;10589;53.636;10.012;2022-11-18T11:19:44;6.83;;;4.83;;
20857;SDS011;10589;53.636;10.012;2022-11-18T11:22:16;9.00;;;5.47;;
20857;SDS011;10589;53.636;10.012;2022-11-18T11:24:42;8.73;;;5.87;;
20857;SDS011;10589;53.636;10.012;2022-11-18T11:35:49;8.93;;;5.33;;
20857;SDS011;10589;53.636;10.012;2022-11-18T11:41:29;12.47;;;5.67;;
20857;SDS011;10589;53.636;10.012;2022-11-18T11:55:25;8.67;;;5.70;;
20857;SDS011;10589;53.636;10.012;2022-11-18T12:01:55;8.57;;;5.20;;
20857;SDS011;10589;53.636;10.012;2022-11-18T12:04:44;9.53;;;5.33;;
20857;SDS011;10589;53.636;10.012;2022-11-18T12:07:18;7.80;;;5.37;;
20857;SDS011;10589;53.636;10.012;2022-11-18T12:15:44;31.80;;;14.97;;
20857;SDS011;10589;53.636;10.012;2022-11-18T12:18:32;24.70;;;11.60;;
20857;SDS011;10589;53.636;10.012;2022-11-18T12:21:06;12.23;;;6.50;;
20857;SDS011;10589;53.636;10.012;2022-11-18T12:23:32;52.63;;;21.53;;
20857;SDS011;10589;53.636;10.012;2022-11-18T12:28:24;36.90;;;17.30;;
20857;SDS011;10589;53.636;10.012;2022-11-18T12:33:41;54.23;;;25.30;;
20857;SDS011;10589;53.636;10.012;2022-11-18T12:36:09;11.17;;;6.10;;
20857;SDS011;10589;53.636;10.012;2022-11-18T12:38:48;11.47;;;7.20;;
20857;SDS011;10589;53.636;10.012;2022-11-18T12:44:23;13.17;;;8.73;;
20857;SDS011;10589;53.636;10.012;2022-11-18T12:46:58;9.57;;;5.90;;
20857;SDS011;10589;53.636;10.012;2022-11-18T12:51:51;6.00;;;4.10;;
20857;SDS011;10589;53.636;10.012;2022-11-18T12:54:25;7.20;;;4.30;;
20857;SDS011;10589;53.636;10.012;2022-11-18T12:57:17;7.00;;;4.47;;
20857;SDS011;10589;53.636;10.012;2022-11-18T12:59:48;6.50;;;4.13;;
20857;SDS011;10589;53.636;10.012;2022-11-18T13:05:09;6.20;;;3.70;;
20857;SDS011;10589;53.636;10.012;2022-11-18T13:07:40;6.93;;;3.57;;
20857;SDS011;10589;53.636;10.012;2022-11-18T13:10:34;5.70;;;3.30;;
20857;SDS011;10589;53.636;10.012;2022-11-18T13:13:03;6.20;;;3.53;;
20857;SDS011;10589;53.636;10.012;2022-11-18T13:15:30;5.40;;;3.60;;
20857;SDS011;10589;53.636;10.012;2022-11-18T13:18:15;6.23;;;3.57;;
20857;SDS011;10589;53.636;10.012;2022-11-18T13:20:42;5.47;;;3.17;;
20857;SDS011;10589;53.636;10.012;2022-11-18T13:26:18;7.10;;;2.97;;
20857;SDS011;10589;53.636;10.012;2022-11-18T13:29:11;4.73;;;2.93;;
20857;SDS011;10589;53.636;10.012;2022-11-18T13:34:45;6.17;;;3.20;;
20857;SDS011;10589;53.636;10.012;2022-11-18T13:37:19;4.37;;;3.43;;
20857;SDS011;10589;53.636;10.012;2022-11-18T13:39:47;4.20;;;3.10;;
20857;SDS011;10589;53.636;10.012;2022-11-18T13:44:59;5.43;;;3.40;;
20857;SDS011;10589;53.636;10.012;2022-11-18T13:47:34;6.43;;;3.00;;
20857;SDS011;10589;53.636;10.012;2022-11-18T13:53:07;8.10;;;3.70;;
20857;SDS011;10589;53.636;10.012;2022-11-18T13:55:52;5.40;;;2.97;;
20857;SDS011;10589;53.636;10.012;2022-11-18T13:58:40;5.93;;;3.53;;
20857;SDS011;10589;53.636;10.012;2022-11-18T14:06:10;27.47;;;10.50;;
20857;SDS011;10589;53.636;10.012;2022-11-18T14:08:36;30.43;;;9.40;;
20857;SDS011;10589;53.636;10.012;2022-11-18T14:11:03;19.37;;;7.67;;
20857;SDS011;10589;53.636;10.012;2022-11-18T14:13:34;59.97;;;20.37;;
20857;SDS011;10589;53.636;10.012;2022-11-18T14:16:02;19.63;;;7.67;;
20857;SDS011;10589;53.636;10.012;2022-11-18T14:18:47;8.93;;;4.60;;
20857;SDS011;10589;53.636;10.012;2022-11-18T14:21:26;92.80;;;29.00;;
20857;SDS011;10589;53.636;10.012;2022-11-18T14:23:54;99.60;;;29.20;;
20857;SDS011;10589;53.636;10.012;2022-11-18T14:26:34;75.70;;;23.83;;
20857;SDS011;10589;53.636;10.012;2022-11-18T14:29:15;19.57;;;6.60;;
20857;SDS011;10589;53.636;10.012;2022-11-18T14:32:00;45.07;;;13.47;;
20857;SDS011;10589;53.636;10.012;2022-11-18T14:34:28;201.30;;;53.87;;
20857;SDS011;10589;53.636;10.012;2022-11-18T14:36:54;68.97;;;20.13;;
20857;SDS011;10589;53.636;10.012;2022-11-18T14:39:21;45.80;;;15.70;;
20857;SDS011;10589;53.636;10.012;2022-11-18T14:41:51;131.67;;;41.10;;
20857;SDS011;10589;53.636;10.012;2022-11-18T14:44:18;107.50;;;35.73;;
20857;SDS011;10589;53.636;10.012;2022-11-18T14:46:46;80.73;;;27.87;;
20857;SDS011;10589;53.636;10.012;2022-11-18T14:49:18;125.80;;;42.27;;
20857;SDS011;10589;53.636;10.012;2022-11-18T14:51:45;78.40;;;25.83;;
20857;SDS011;10589;53.636;10.012;2022-11-18T14:54:13;120.13;;;39.40;;
20857;SDS011;10589;53.636;10.012;2022-11-18T14:56:40;78.13;;;27.40;;
20857;SDS011;10589;53.636;10.012;2022-11-18T14:59:11;36.47;;;13.37;;
20857;SDS011;10589;53.636;10.012;2022-11-18T15:01:37;19.43;;;8.07;;
20857;SDS011;10589;53.636;10.012;2022-11-18T15:04:03;10.33;;;5.60;;
20857;SDS011;10589;53.636;10.012;2022-11-18T15:06:29;9.33;;;4.50;;
20857;SDS011;10589;53.636;10.012;2022-11-18T15:08:54;46.20;;;15.87;;
20857;SDS011;10589;53.636;10.012;2022-11-18T15:11:20;40.33;;;15.07;;
20857;SDS011;10589;53.636;10.012;2022-11-18T15:13:45;30.03;;;12.27;;
20857;SDS011;10589;53.636;10.012;2022-11-18T15:16:16;23.73;;;10.93;;
20857;SDS011;10589;53.636;10.012;2022-11-18T15:18:47;17.57;;;8.13;;
20857;SDS011;10589;53.636;10.012;2022-11-18T15:21:14;11.03;;;6.20;;
20857;SDS011;10589;53.636;10.012;2022-11-18T15:23:40;11.53;;;6.20;;
20857;SDS011;10589;53.636;10.012;2022-11-18T15:26:19;10.07;;;6.73;;
20857;SDS011;10589;53.636;10.012;2022-11-18T15:28:46;10.90;;;6.83;;
20857;SDS011;10589;53.636;10.012;2022-11-18T15:31:12;7.57;;;4.30;;
20857;SDS011;10589;53.636;10.012;2022-11-18T15:33:38;7.83;;;4.40;;
20857;SDS011;10589;53.636;10.012;2022-11-18T15:36:08;7.70;;;4.13;;
20857;SDS011;10589;53.636;10.012;2022-11-18T15:38:39;5.57;;;3.73;;
20857;SDS011;10589;53.636;10.012;2022-11-18T15:41:05;5.73;;;3.70;;
20857;SDS011;10589;53.636;10.012;2022-11-18T15:43:31;4.23;;;2.97;;
20857;SDS011;10589;53.636;10.012;2022-11-18T15:45:57;7.73;;;3.83;;
20857;SDS011;10589;53.636;10.012;2022-11-18T15:48:23;5.67;;;4.10;;
20857;SDS011;10589;53.636;10.012;2022-11-18T15:50:48;7.30;;;3.57;;
20857;SDS011;10589;53.636;10.012;2022-11-18T15:53:14;5.23;;;3.10;;
20857;SDS011;10589;53.636;10.012;2022-11-18T15:55:40;5.90;;;3.57;;
20857;SDS011;10589;53.636;10.012;2022-11-18T15:58:05;7.00;;;3.70;;
20857;SDS011;10589;53.636;10.012;2022-11-18T16:00:31;5.70;;;3.90;;
20857;SDS011;10589;53.636;10.012;2022-11-18T16:02:56;5.40;;;3.30;;
20857;SDS011;10589;53.636;10.012;2022-11-18T16:05:22;4.70;;;2.73;;
20857;SDS011;10589;53.636;10.012;2022-11-18T16:07:48;5.43;;;2.80;;
20857;SDS011;10589;53.636;10.012;2022-11-18T16:10:13;5.57;;;2.80;;
20857;SDS011;10589;53.636;10.012;2022-11-18T16:12:58;3.53;;;2.17;;
20857;SDS011;10589;53.636;10.012;2022-11-18T16:15:23;5.07;;;2.33;;
20857;SDS011;10589;53.636;10.012;2022-11-18T16:18:07;4.77;;;2.50;;
20857;SDS011;10589;53.636;10.012;2022-11-18T16:20:33;6.07;;;2.43;;
20857;SDS011;10589;53.636;10.012;2022-11-18T16:22:59;3.37;;;2.17;;
20857;SDS011;10589;53.636;10.012;2022-11-18T16:25:24;4.83;;;2.40;;
20857;SDS011;10589;53.636;10.012;2022-11-18T16:27:51;4.30;;;2.73;;
20857;SDS011;10589;53.636;10.012;2022-11-18T16:30:17;5.33;;;3.20;;
20857;SDS011;10589;53.636;10.012;2022-11-18T16:33:01;4.60;;;2.40;;
20857;SDS011;10589;53.636;10.012;2022-11-18T16:35:27;4.03;;;2.63;;
20857;SDS011;10589;53.636;10.012;2022-11-18T16:37:52;3.70;;;2.50;;
20857;SDS011;10589;53.636;10.012;2022-11-18T16:40:18;2.60;;;2.10;;
20857;SDS011;10589;53.636;10.012;2022-11-18T16:42:48;4.73;;;3.10;;
20857;SDS011;10589;53.636;10.012;2022-11-18T16:45:15;4.33;;;3.00;;
20857;SDS011;10589;53.636;10.012;2022-11-18T16:47:41;3.47;;;2.70;;
20857;SDS011;10589;53.636;10.012;2022-11-18T16:50:07;4.47;;;2.83;;
20857;SDS011;10589;53.636;10.012;2022-11-18T16:52:33;5.30;;;2.80;;
20857;SDS011;10589;53.636;10.012;2022-11-18T16:54:58;5.67;;;2.90;;
20857;SDS011;10589;53.636;10.012;2022-11-18T16:57:24;4.03;;;2.60;;
20857;SDS011;10589;53.636;10.012;2022-11-18T16:59:50;5.27;;;3.07;;
20857;SDS011;10589;53.636;10.012;2022-11-18T17:02:15;5.07;;;2.93;;
20857;SDS011;10589;53.636;10.012;2022-11-18T17:04:44;4.33;;;2.80;;
20857;SDS011;10589;53.636;10.012;2022-11-18T17:07:09;3.87;;;2.70;;
20857;SDS011;10589;53.636;10.012;2022-11-18T17:09:36;4.73;;;2.77;;
20857;SDS011;10589;53.636;10.012;2022-11-18T17:12:01;5.23;;;3.00;;
20857;SDS011;10589;53.636;10.012;2022-11-18T17:14:28;5.27;;;3.40;;
20857;SDS011;10589;53.636;10.012;2022-11-18T17:16:54;4.87;;;3.13;;
20857;SDS011;10589;53.636;10.012;2022-11-18T17:19:20;4.80;;;3.10;;
20857;SDS011;10589;53.636;10.012;2022-11-18T17:21:48;4.83;;;3.00;;
20857;SDS011;10589;53.636;10.012;2022-11-18T17:24:17;5.10;;;3.07;;
20857;SDS011;10589;53.636;10.012;2022-11-18T17:26:44;5.30;;;3.57;;
20857;SDS011;10589;53.636;10.012;2022-11-18T17:29:11;4.83;;;3.37;;
20857;SDS011;10589;53.636;10.012;2022-11-18T17:31:37;6.67;;;4.10;;
20857;SDS011;10589;53.636;10.012;2022-11-18T17:34:04;9.17;;;4.93;;
20857;SDS011;10589;53.636;10.012;2022-11-18T17:36:30;12.73;;;8.50;;
20857;SDS011;10589;53.636;10.012;2022-11-18T17:38:57;11.63;;;7.60;;
20857;SDS011;10589;53.636;10.012;2022-11-18T17:41:25;9.03;;;6.03;;
20857;SDS011;10589;53.636;10.012;2022-11-18T17:44:11;6.87;;;4.10;;
20857;SDS011;10589;53.636;10.012;2022-11-18T17:46:38;7.20;;;4.50;;
20857;SDS011;10589;53.636;10.012;2022-11-18T17:49:05;5.73;;;4.07;;
20857;SDS011;10589;53.636;10.012;2022-11-18T17:51:34;5.80;;;3.83;;
20857;SDS011;10589;53.636;10.012;2022-11-18T17:54:00;10.97;;;6.83;;
20857;SDS011;10589;53.636;10.012;2022-11-18T17:56:25;8.33;;;5.60;;
20857;SDS011;10589;53.636;10.012;2022-11-18T17:58:51;11.30;;;8.10;;
20857;SDS011;10589;53.636;10.012;2022-11-18T18:01:17;15.10;;;8.20;;
20857;SDS011;10589;53.636;10.012;2022-11-18T18:03:44;9.73;;;7.20;;
20857;SDS011;10589;53.636;10.012;2022-11-18T18:06:10;11.80;;;5.70;;
20857;SDS011;10589;53.636;10.012;2022-11-18T18:08:37;10.60;;;5.60;;
20857;SDS011;10589;53.636;10.012;2022-11-18T18:11:03;8.20;;;4.67;;
20857;SDS011;10589;53.636;10.012;2022-11-18T18:13:30;14.50;;;5.90;;
20857;SDS011;10589;53.636;10.012;2022-11-18T18:16:15;11.93;;;5.40;;
20857;SDS011;10589;53.636;10.012;2022-11-18T18:18:40;11.80;;;5.43;;
20857;SDS011;10589;53.636;10.012;2022-11-18T18:21:06;8.30;;;5.50;;
20857;SDS011;10589;53.636;10.012;2022-11-18T18:23:33;9.63;;;5.60;;
20857;SDS011;10589;53.636;10.012;2022-11-18T18:26:05;7.80;;;5.40;;
20857;SDS011;10589;53.636;10.012;2022-11-18T18:28:32;9.03;;;5.50;;
20857;SDS011;10589;53.636;10.012;2022-11-18T18:30:58;9.30;;;6.47;;
20857;SDS011;10589;53.636;10.012;2022-11-18T18:33:25;10.37;;;6.97;;
20857;SDS011;10589;53.636;10.012;2022-11-18T18:35:57;10.23;;;7.50;;
20857;SDS011;10589;53.636;10.012;2022-11-18T18:38:23;9.10;;;6.57;;
20857;SDS011;10589;53.636;10.012;2022-11-18T18:40:50;10.40;;;6.13;;
20857;SDS011;10589;53.636;10.012;2022-11-18T18:43:15;10.17;;;5.63;;
20857;SDS011;10589;53.636;10.012;2022-11-18T18:45:41;10.03;;;5.33;;
20857;SDS011;10589;53.636;10.012;2022-11-18T18:48:25;9.23;;;4.80;;
20857;SDS011;10589;53.636;10.012;2022-11-18T18:50:51;10.73;;;5.77;;
20857;SDS011;10589;53.636;10.012;2022-11-18T18:53:16;10.57;;;5.37;;
20857;SDS011;10589;53.636;10.012;2022-11-18T18:55:42;25.33;;;9.33;;
20857;SDS011;10589;53.636;10.012;2022-11-18T18:58:08;29.40;;;14.03;;
20857;SDS011;10589;53.636;10.012;2022-11-18T19:00:33;25.13;;;13.07;;
20857;SDS011;10589;53.636;10.012;2022-11-18T19:02:59;40.33;;;24.63;;
20857;SDS011;10589;53.636;10.012;2022-11-18T19:05:26;14.43;;;9.37;;
20857;SDS011;10589;53.636;10.012;2022-11-18T19:07:52;33.43;;;17.30;;
20857;SDS011;10589;53.636;10.012;2022-11-18T19:10:18;42.40;;;24.70;;
20857;SDS011;10589;53.636;10.012;2022-11-18T19:12:45;20.57;;;12.90;;
20857;SDS011;10589;53.636;10.012;2022-11-18T19:15:16;9.70;;;6.27;;
20857;SDS011;10589;53.636;10.012;2022-11-18T19:17:47;13.80;;;6.93;;
20857;SDS011;10589;53.636;10.012;2022-11-18T19:20:13;11.50;;;7.13;;
20857;SDS011;10589;53.636;10.012;2022-11-18T19:23:04;7.23;;;3.93;;
20857;SDS011;10589;53.636;10.012;2022-11-18T19:25:32;7.63;;;4.77;;
20857;SDS011;10589;53.636;10.012;2022-11-18T19:27:58;9.77;;;5.80;;
20857;SDS011;10589;53.636;10.012;2022-11-18T19:30:24;17.10;;;9.50;;
20857;SDS011;10589;53.636;10.012;2022-11-18T19:32:50;24.03;;;14.37;;
20857;SDS011;10589;53.636;10.012;2022-11-18T19:35:15;14.93;;;9.93;;
20857;SDS011;10589;53.636;10.012;2022-11-18T19:37:41;28.53;;;15.63;;
20857;SDS011;10589;53.636;10.012;2022-11-18T19:40:07;11.37;;;7.20;;
20857;SDS011;10589;53.636;10.012;2022-11-18T19:42:34;11.97;;;7.53;;
20857;SDS011;10589;53.636;10.012;2022-11-18T19:45:03;10.43;;;5.00;;
20857;SDS011;10589;53.636;10.012;2022-11-18T19:47:29;11.53;;;6.67;;
20857;SDS011;10589;53.636;10.012;2022-11-18T19:49:55;9.27;;;5.47;;
20857;SDS011;10589;53.636;10.012;2022-11-18T19:52:21;8.97;;;6.30;;
20857;SDS011;10589;53.636;10.012;2022-11-18T19:54:46;9.47;;;5.33;;
20857;SDS011;10589;53.636;10.012;2022-11-18T19:57:12;9.37;;;5.90;;
20857;SDS011;10589;53.636;10.012;2022-11-18T19:59:38;9.07;;;6.00;;
20857;SDS011;10589;53.636;10.012;2022-11-18T20:02:03;8.93;;;6.03;;
20857;SDS011;10589;53.636;10.012;2022-11-18T20:04:30;15.23;;;9.57;;
20857;SDS011;10589;53.636;10.012;2022-11-18T20:06:55;7.67;;;6.13;;
20857;SDS011;10589;53.636;10.012;2022-11-18T20:09:21;9.77;;;5.93;;
20857;SDS011;10589;53.636;10.012;2022-11-18T20:11:47;9.20;;;6.07;;
20857;SDS011;10589;53.636;10.012;2022-11-18T20:14:12;10.73;;;6.37;;
20857;SDS011;10589;53.636;10.012;2022-11-18T20:16:38;10.33;;;6.77;;
20857;SDS011;10589;53.636;10.012;2022-11-18T20:19:05;9.10;;;6.60;;
20857;SDS011;10589;53.636;10.012;2022-11-18T20:21:32;10.97;;;7.37;;
20857;SDS011;10589;53.636;10.012;2022-11-18T20:23:59;10.80;;;6.50;;
20857;SDS011;10589;53.636;10.012;2022-11-18T20:26:27;11.07;;;7.00;;
20857;SDS011;10589;53.636;10.012;2022-11-18T20:28:55;9.93;;;6.70;;
20857;SDS011;10589;53.636;10.012;2022-11-18T20:31:21;11.57;;;7.47;;
20857;SDS011;10589;53.636;10.012;2022-11-18T20:33:48;11.17;;;7.90;;
20857;SDS011;10589;53.636;10.012;2022-11-18T20:36:16;11.67;;;8.57;;
20857;SDS011;10589;53.636;10.012;2022-11-18T20:38:46;11.23;;;8.20;;
20857;SDS011;10589;53.636;10.012;2022-11-18T20:41:14;11.87;;;7.90;;
20857;SDS011;10589;53.636;10.012;2022-11-18T20:43:39;11.17;;;7.27;;
20857;SDS011;10589;53.636;10.012;2022-11-18T20:46:07;10.33;;;6.80;;
20857;SDS011;10589;53.636;10.012;2022-11-18T20:48:34;11.37;;;7.57;;